sensor_id;sensor_type;location;lat;lon;timestamp;pressure;altitude;pressure_sealevel;temperature;humidity
11198;BME280;5655;48.744;9.162;2023-01-30T00:01:32;96708.69;;;-0.16;100.00
11198;BME280;5655;48.744;9.162;2023-01-30T00:03:58;96708.06;;;-0.08;100.00
11198;BME280;5655;48.744;9.162;2023-01-30T00:06:24;96701.13;;;-0.18;100.00
11198;BME280;5655;48.744;9.162;2023-01-30T00:08:49;96706.22;;;-0.26;100.00
11198;BME280;5655;48.744;9.162;2023-01-30T00:11:16;96687.19;;;-0.18;100.00
11198;BME280;5655;48.744;9.162;2023-01-30T00:13:44;96680.41;;;-0.43;100.00
11198;BME280;5655;48.744;9.162;2023-01-30T00:16:10;96664.72;;;-0.29;100.00
11198;BME280;5655;48.744;9.162;2023-01-30T00:18:37;96657.72;;;-0.20;100.00
11198;BME280;5655;48.744;9.162;2023-01-30T00:21:04;96641.22;;;-0.39;100.00
11198;BME280;5655;48.744;9.162;2023-01-30T00:23:31;96639.13;;;-0.42;100.00
11198;BME280;5655;48.744;9.162;2023-01-30T00:25:57;96628.56;;;-0.75;100.00
11198;BME280;5655;48.744;9.162;2023-01-30T00:28:22;96648.59;;;-0.41;100.00
11198;BME280;5655;48.744;9.162;2023-01-30T00:30:48;96655.75;;;-0.28;100.00
11198;BME280;5655;48.744;9.162;2023-01-30T00:33:18;96654.44;;;-0.12;100.00
11198;BME280;5655;48.744;9.162;2023-01-30T00:35:47;96661.94;;;0.13;100.00
11198;BME280;5655;48.744;9.162;2023-01-30T00:38:13;96652.47;;;-0.20;100.00
11198;BME280;5655;48.744;9.162;2023-01-30T00:40:39;96653.34;;;-0.43;100.00
11198;BME280;5655;48.744;9.162;2023-01-30T00:43:05;96627.94;;;-0.48;100.00
11198;BME280;5655;48.744;9.162;2023-01-30T00:45:49;96633.47;;;-0.50;100.00
11198;BME280;5655;48.744;9.162;2023-01-30T00:48:34;96631.09;;;-0.51;100.00
11198;BME280;5655;48.744;9.162;2023-01-30T00:51:00;96641.06;;;-0.48;100.00
11198;BME280;5655;48.744;9.162;2023-01-30T00:53:26;96642.13;;;-0.30;100.00
11198;BME280;5655;48.744;9.162;2023-01-30T00:55:52;96651.16;;;-0.36;100.00
11198;BME280;5655;48.744;9.162;2023-01-30T00:58:18;96672.78;;;-0.07;100.00
11198;BME280;5655;48.744;9.162;2023-01-30T01:00:44;96668.63;;;-0.27;100.00
11198;BME280;5655;48.744;9.162;2023-01-30T01:03:09;96683.69;;;-0.14;100.00
11198;BME280;5655;48.744;9.162;2023-01-30T01:05:34;96697.28;;;-0.44;100.00
11198;BME280;5655;48.744;9.162;2023-01-30T01:08:00;96694.47;;;-0.34;100.00
11198;BME280;5655;48.744;9.162;2023-01-30T01:10:25;96700.72;;;-0.30;100.00
11198;BME280;5655;48.744;9.162;2023-01-30T01:12:51;96716.66;;;-0.40;100.00
11198;BME280;5655;48.744;9.162;2023-01-30T01:15:16;96714.19;;;-0.31;100.00
11198;BME280;5655;48.744;9.162;2023-01-30T01:17:42;96719.09;;;-0.43;100.00
11198;BME280;5655;48.744;9.162;2023-01-30T01:20:08;96699.69;;;-0.48;100.00
11198;BME280;5655;48.744;9.162;2023-01-30T01:22:34;96717.47;;;-0.39;100.00
11198;BME280;5655;48.744;9.162;2023-01-30T01:24:59;96708.28;;;-0.42;100.00
11198;BME280;5655;48.744;9.162;2023-01-30T01:27:25;96719.88;;;-0.24;100.00
11198;BME280;5655;48.744;9.162;2023-01-30T01:29:50;96721.94;;;-0.40;100.00
11198;BME280;5655;48.744;9.162;2023-01-30T01:32:15;96727.34;;;-0.31;100.00
11198;BME280;5655;48.744;9.162;2023-01-30T01:34:41;96730.50;;;-0.34;100.00
11198;BME280;5655;48.744;9.162;2023-01-30T01:37:18;96741.03;;;-0.34;100.00
11198;BME280;5655;48.744;9.162;2023-01-30T01:39:43;96730.84;;;-0.60;100.00
11198;BME280;5655;48.744;9.162;2023-01-30T01:42:34;96722.44;;;-0.80;100.00
11198;BME280;5655;48.744;9.162;2023-01-30T01:45:15;96720.09;;;-0.39;100.00
11198;BME280;5655;48.744;9.162;2023-01-30T01:48:15;96694.41;;;-0.10;100.00
11198;BME280;5655;48.744;9.162;2023-01-30T01:50:49;96702.81;;;-0.46;100.00
11198;BME280;5655;48.744;9.162;2023-01-30T01:53:19;96698.41;;;-0.31;100.00
11198;BME280;5655;48.744;9.162;2023-01-30T01:55:48;96704.78;;;-0.37;100.00
11198;BME280;5655;48.744;9.162;2023-01-30T01:58:18;96715.69;;;-0.44;100.00
11198;BME280;5655;48.744;9.162;2023-01-30T02:00:45;96718.28;;;-0.63;100.00
11198;BME280;5655;48.744;9.162;2023-01-30T02:03:16;96706.38;;;-0.36;100.00
11198;BME280;5655;48.744;9.162;2023-01-30T02:05:45;96716.09;;;-0.37;100.00
11198;BME280;5655;48.744;9.162;2023-01-30T02:08:18;96728.66;;;-0.34;100.00
11198;BME280;5655;48.744;9.162;2023-01-30T02:10:55;96724.81;;;-0.04;100.00
11198;BME280;5655;48.744;9.162;2023-01-30T02:13:23;96719.28;;;-0.21;100.00
11198;BME280;5655;48.744;9.162;2023-01-30T02:15:49;96731.31;;;-0.53;100.00
11198;BME280;5655;48.744;9.162;2023-01-30T02:18:15;96724.84;;;-0.41;100.00
11198;BME280;5655;48.744;9.162;2023-01-30T02:26:52;96707.91;;;0.02;100.00
11198;BME280;5655;48.744;9.162;2023-01-30T02:29:55;96707.00;;;-0.07;100.00
11198;BME280;5655;48.744;9.162;2023-01-30T02:38:08;96678.50;;;-0.37;100.00
11198;BME280;5655;48.744;9.162;2023-01-30T02:41:05;96705.94;;;-0.06;100.00
11198;BME280;5655;48.744;9.162;2023-01-30T02:43:50;96710.06;;;-0.37;100.00
11198;BME280;5655;48.744;9.162;2023-01-30T02:49:08;96662.06;;;-0.85;100.00
11198;BME280;5655;48.744;9.162;2023-01-30T02:51:37;96638.06;;;-1.21;100.00
11198;BME280;5655;48.744;9.162;2023-01-30T02:54:07;96648.50;;;-0.93;100.00
11198;BME280;5655;48.744;9.162;2023-01-30T02:59:10;96698.19;;;-0.77;100.00
11198;BME280;5655;48.744;9.162;2023-01-30T03:02:00;96690.72;;;-0.65;100.00
11198;BME280;5655;48.744;9.162;2023-01-30T03:10:13;96646.31;;;-1.33;100.00
11198;BME280;5655;48.744;9.162;2023-01-30T03:12:50;96634.59;;;-1.41;100.00
11198;BME280;5655;48.744;9.162;2023-01-30T03:15:24;96619.84;;;-1.37;100.00
11198;BME280;5655;48.744;9.162;2023-01-30T03:17:51;96619.69;;;-1.69;100.00
11198;BME280;5655;48.744;9.162;2023-01-30T03:20:19;96608.91;;;-1.44;100.00
11198;BME280;5655;48.744;9.162;2023-01-30T03:22:44;96593.84;;;-1.57;100.00
11198;BME280;5655;48.744;9.162;2023-01-30T03:25:15;96591.59;;;-1.45;100.00
11198;BME280;5655;48.744;9.162;2023-01-30T03:27:41;96579.78;;;-1.66;100.00
11198;BME280;5655;48.744;9.162;2023-01-30T03:30:08;96562.00;;;-1.26;100.00
11198;BME280;5655;48.744;9.162;2023-01-30T03:32:33;96536.31;;;-1.53;100.00
11198;BME280;5655;48.744;9.162;2023-01-30T03:34:59;96549.75;;;-1.12;100.00
11198;BME280;5655;48.744;9.162;2023-01-30T03:37:24;96540.41;;;-0.86;100.00
11198;BME280;5655;48.744;9.162;2023-01-30T03:39:49;96558.31;;;-0.88;100.00
11198;BME280;5655;48.744;9.162;2023-01-30T03:42:15;96566.63;;;-1.00;100.00
11198;BME280;5655;48.744;9.162;2023-01-30T03:44:40;96564.28;;;-1.01;100.00
11198;BME280;5655;48.744;9.162;2023-01-30T03:47:05;96580.13;;;-0.87;100.00
11198;BME280;5655;48.744;9.162;2023-01-30T03:49:31;96585.88;;;-0.67;100.00
11198;BME280;5655;48.744;9.162;2023-01-30T03:51:56;96583.59;;;-0.55;100.00
11198;BME280;5655;48.744;9.162;2023-01-30T03:54:21;96562.72;;;-0.65;100.00
11198;BME280;5655;48.744;9.162;2023-01-30T03:56:46;96558.03;;;-1.05;100.00
11198;BME280;5655;48.744;9.162;2023-01-30T03:59:12;96571.66;;;-0.66;100.00
11198;BME280;5655;48.744;9.162;2023-01-30T04:01:37;96561.16;;;-0.66;100.00
11198;BME280;5655;48.744;9.162;2023-01-30T04:04:02;96555.75;;;-0.93;100.00
11198;BME280;5655;48.744;9.162;2023-01-30T04:06:28;96566.25;;;-0.56;100.00
11198;BME280;5655;48.744;9.162;2023-01-30T04:08:53;96565.50;;;-0.56;100.00
11198;BME280;5655;48.744;9.162;2023-01-30T04:11:19;96573.66;;;-0.58;100.00
11198;BME280;5655;48.744;9.162;2023-01-30T04:13:45;96573.06;;;-0.55;100.00
11198;BME280;5655;48.744;9.162;2023-01-30T04:16:23;96570.28;;;-0.12;100.00
11198;BME280;5655;48.744;9.162;2023-01-30T04:18:49;96584.03;;;-0.48;100.00
11198;BME280;5655;48.744;9.162;2023-01-30T04:21:14;96575.69;;;-0.36;100.00
11198;BME280;5655;48.744;9.162;2023-01-30T04:23:40;96585.88;;;-0.34;100.00
11198;BME280;5655;48.744;9.162;2023-01-30T04:26:06;96586.53;;;-0.24;100.00
11198;BME280;5655;48.744;9.162;2023-01-30T04:28:32;96589.06;;;-0.19;100.00
11198;BME280;5655;48.744;9.162;2023-01-30T04:30:58;96579.41;;;-0.23;100.00
11198;BME280;5655;48.744;9.162;2023-01-30T04:33:23;96581.47;;;-0.20;100.00
11198;BME280;5655;48.744;9.162;2023-01-30T04:35:56;96576.63;;;0.00;100.00
11198;BME280;5655;48.744;9.162;2023-01-30T04:38:22;96572.50;;;-0.19;100.00
11198;BME280;5655;48.744;9.162;2023-01-30T04:40:53;96569.72;;;0.05;100.00
11198;BME280;5655;48.744;9.162;2023-01-30T04:43:19;96576.06;;;-0.29;100.00
11198;BME280;5655;48.744;9.162;2023-01-30T04:45:45;96583.03;;;-0.19;100.00
11198;BME280;5655;48.744;9.162;2023-01-30T04:48:11;96575.16;;;-0.19;100.00
11198;BME280;5655;48.744;9.162;2023-01-30T04:50:37;96581.38;;;-0.15;100.00
11198;BME280;5655;48.744;9.162;2023-01-30T04:53:03;96580.53;;;-0.11;100.00
11198;BME280;5655;48.744;9.162;2023-01-30T04:55:28;96581.53;;;0.07;100.00
11198;BME280;5655;48.744;9.162;2023-01-30T04:57:54;96585.16;;;0.11;100.00
11198;BME280;5655;48.744;9.162;2023-01-30T05:00:19;96572.66;;;0.03;100.00
11198;BME280;5655;48.744;9.162;2023-01-30T05:02:45;96579.50;;;0.04;100.00
11198;BME280;5655;48.744;9.162;2023-01-30T05:05:10;96581.47;;;0.12;100.00
11198;BME280;5655;48.744;9.162;2023-01-30T05:07:35;96563.88;;;-0.06;100.00
11198;BME280;5655;48.744;9.162;2023-01-30T05:10:00;96570.28;;;-0.12;100.00
11198;BME280;5655;48.744;9.162;2023-01-30T05:12:27;96565.66;;;0.12;100.00
11198;BME280;5655;48.744;9.162;2023-01-30T05:14:52;96550.63;;;-0.01;100.00
11198;BME280;5655;48.744;9.162;2023-01-30T05:17:17;96569.41;;;-0.08;100.00
11198;BME280;5655;48.744;9.162;2023-01-30T05:19:43;96559.00;;;0.01;100.00
11198;BME280;5655;48.744;9.162;2023-01-30T05:22:08;96548.13;;;0.08;100.00
11198;BME280;5655;48.744;9.162;2023-01-30T05:24:33;96557.63;;;-0.10;100.00
11198;BME280;5655;48.744;9.162;2023-01-30T05:26:58;96545.84;;;0.01;100.00
11198;BME280;5655;48.744;9.162;2023-01-30T05:29:24;96546.56;;;0.20;100.00
11198;BME280;5655;48.744;9.162;2023-01-30T05:31:49;96539.34;;;0.12;100.00
11198;BME280;5655;48.744;9.162;2023-01-30T05:34:14;96539.75;;;0.33;100.00
11198;BME280;5655;48.744;9.162;2023-01-30T05:36:40;96539.84;;;0.41;100.00
11198;BME280;5655;48.744;9.162;2023-01-30T05:39:05;96538.19;;;0.45;100.00
11198;BME280;5655;48.744;9.162;2023-01-30T05:41:30;96535.47;;;0.51;100.00
11198;BME280;5655;48.744;9.162;2023-01-30T05:43:56;96542.06;;;0.62;100.00
11198;BME280;5655;48.744;9.162;2023-01-30T05:46:21;96535.47;;;0.51;100.00
11198;BME280;5655;48.744;9.162;2023-01-30T05:48:46;96537.22;;;0.69;100.00
11198;BME280;5655;48.744;9.162;2023-01-30T05:51:23;96537.56;;;0.76;100.00
11198;BME280;5655;48.744;9.162;2023-01-30T05:53:49;96548.81;;;0.54;100.00
11198;BME280;5655;48.744;9.162;2023-01-30T05:56:15;96536.06;;;0.34;100.00
11198;BME280;5655;48.744;9.162;2023-01-30T05:58:41;96551.25;;;0.51;100.00
11198;BME280;5655;48.744;9.162;2023-01-30T06:01:09;96539.94;;;0.64;100.00
11198;BME280;5655;48.744;9.162;2023-01-30T06:03:36;96537.41;;;0.59;100.00
11198;BME280;5655;48.744;9.162;2023-01-30T06:06:02;96551.22;;;0.78;100.00
11198;BME280;5655;48.744;9.162;2023-01-30T06:08:28;96547.16;;;0.44;100.00
11198;BME280;5655;48.744;9.162;2023-01-30T06:10:53;96540.63;;;0.56;100.00
11198;BME280;5655;48.744;9.162;2023-01-30T06:13:18;96545.56;;;0.71;100.00
11198;BME280;5655;48.744;9.162;2023-01-30T06:15:44;96545.91;;;0.56;100.00
11198;BME280;5655;48.744;9.162;2023-01-30T06:18:09;96535.44;;;0.64;100.00
11198;BME280;5655;48.744;9.162;2023-01-30T06:20:34;96528.03;;;0.53;100.00
11198;BME280;5655;48.744;9.162;2023-01-30T06:23:00;96537.41;;;0.59;100.00
11198;BME280;5655;48.744;9.162;2023-01-30T06:25:25;96528.25;;;0.42;100.00
11198;BME280;5655;48.744;9.162;2023-01-30T06:27:51;96532.31;;;0.35;100.00
11198;BME280;5655;48.744;9.162;2023-01-30T06:30:16;96527.84;;;0.63;100.00
11198;BME280;5655;48.744;9.162;2023-01-30T06:32:42;96530.06;;;0.69;100.00
11198;BME280;5655;48.744;9.162;2023-01-30T06:35:07;96534.19;;;0.34;100.00
11198;BME280;5655;48.744;9.162;2023-01-30T06:37:33;96528.25;;;0.42;100.00
11198;BME280;5655;48.744;9.162;2023-01-30T06:39:58;96530.38;;;0.40;100.00
11198;BME280;5655;48.744;9.162;2023-01-30T06:42:23;96514.22;;;0.33;100.00
11198;BME280;5655;48.744;9.162;2023-01-30T06:44:49;96510.50;;;0.34;100.00
11198;BME280;5655;48.744;9.162;2023-01-30T06:47:14;96509.91;;;0.51;100.00
11198;BME280;5655;48.744;9.162;2023-01-30T06:49:39;96514.66;;;0.63;100.00
11198;BME280;5655;48.744;9.162;2023-01-30T06:52:04;96513.16;;;0.34;100.00
11198;BME280;5655;48.744;9.162;2023-01-30T06:54:30;96492.84;;;0.49;100.00
11198;BME280;5655;48.744;9.162;2023-01-30T06:56:55;96493.53;;;0.40;100.00
11198;BME280;5655;48.744;9.162;2023-01-30T06:59:20;96490.19;;;0.49;100.00
11198;BME280;5655;48.744;9.162;2023-01-30T07:01:46;96484.94;;;0.49;100.00
11198;BME280;5655;48.744;9.162;2023-01-30T07:04:11;96478.88;;;0.48;100.00
11198;BME280;5655;48.744;9.162;2023-01-30T07:06:36;96488.94;;;0.60;100.00
11198;BME280;5655;48.744;9.162;2023-01-30T07:09:02;96507.84;;;0.62;100.00
11198;BME280;5655;48.744;9.162;2023-01-30T07:11:27;96499.84;;;0.67;100.00
11198;BME280;5655;48.744;9.162;2023-01-30T07:13:53;96525.97;;;0.77;100.00
11198;BME280;5655;48.744;9.162;2023-01-30T07:16:18;96508.22;;;0.69;100.00
11198;BME280;5655;48.744;9.162;2023-01-30T07:18:43;96522.09;;;1.10;100.00
11198;BME280;5655;48.744;9.162;2023-01-30T07:21:09;96525.47;;;0.75;100.00
11198;BME280;5655;48.744;9.162;2023-01-30T07:23:34;96526.59;;;0.96;100.00
11198;BME280;5655;48.744;9.162;2023-01-30T07:26:04;96537.50;;;1.39;100.00
11198;BME280;5655;48.744;9.162;2023-01-30T07:28:30;96531.88;;;0.96;100.00
11198;BME280;5655;48.744;9.162;2023-01-30T07:30:58;96530.34;;;1.17;100.00
11198;BME280;5655;48.744;9.162;2023-01-30T07:33:24;96552.84;;;1.01;100.00
11198;BME280;5655;48.744;9.162;2023-01-30T07:35:49;96542.41;;;0.96;100.00
11198;BME280;5655;48.744;9.162;2023-01-30T07:38:14;96526.22;;;1.03;100.00
11198;BME280;5655;48.744;9.162;2023-01-30T07:40:39;96533.72;;;1.31;100.00
11198;BME280;5655;48.744;9.162;2023-01-30T07:43:07;96541.75;;;1.49;100.00
11198;BME280;5655;48.744;9.162;2023-01-30T07:45:45;96551.09;;;1.77;100.00
11198;BME280;5655;48.744;9.162;2023-01-30T07:48:13;96557.34;;;1.81;100.00
11198;BME280;5655;48.744;9.162;2023-01-30T07:50:39;96565.72;;;1.83;100.00
11198;BME280;5655;48.744;9.162;2023-01-30T07:53:06;96554.78;;;1.90;100.00
11198;BME280;5655;48.744;9.162;2023-01-30T07:55:32;96556.41;;;1.86;100.00
11198;BME280;5655;48.744;9.162;2023-01-30T07:57:58;96547.09;;;1.57;100.00
11198;BME280;5655;48.744;9.162;2023-01-30T08:00:24;96554.13;;;1.62;100.00
11198;BME280;5655;48.744;9.162;2023-01-30T08:02:49;96537.31;;;1.35;100.00
11198;BME280;5655;48.744;9.162;2023-01-30T08:05:15;96525.94;;;1.26;100.00
11198;BME280;5655;48.744;9.162;2023-01-30T08:07:40;96531.09;;;1.54;100.00
11198;BME280;5655;48.744;9.162;2023-01-30T08:10:06;96522.38;;;1.75;100.00
11198;BME280;5655;48.744;9.162;2023-01-30T08:12:32;96529.56;;;1.83;100.00
11198;BME280;5655;48.744;9.162;2023-01-30T08:14:57;96557.81;;;1.61;100.00
11198;BME280;5655;48.744;9.162;2023-01-30T08:17:22;96556.03;;;1.70;100.00
11198;BME280;5655;48.744;9.162;2023-01-30T08:19:48;96573.66;;;1.83;100.00
11198;BME280;5655;48.744;9.162;2023-01-30T08:22:13;96571.31;;;1.37;100.00
11198;BME280;5655;48.744;9.162;2023-01-30T08:24:39;96569.56;;;1.32;100.00
11198;BME280;5655;48.744;9.162;2023-01-30T08:27:04;96545.34;;;1.53;100.00
11198;BME280;5655;48.744;9.162;2023-01-30T08:29:30;96545.00;;;1.46;100.00
11198;BME280;5655;48.744;9.162;2023-01-30T08:31:59;96542.47;;;1.85;100.00
11198;BME280;5655;48.744;9.162;2023-01-30T08:34:24;96538.09;;;1.80;100.00
11198;BME280;5655;48.744;9.162;2023-01-30T08:36:50;96530.44;;;2.01;100.00
11198;BME280;5655;48.744;9.162;2023-01-30T08:39:15;96512.06;;;1.65;100.00
11198;BME280;5655;48.744;9.162;2023-01-30T08:41:41;96515.75;;;1.87;100.00
11198;BME280;5655;48.744;9.162;2023-01-30T08:44:08;96529.28;;;1.85;100.00
11198;BME280;5655;48.744;9.162;2023-01-30T08:46:34;96529.28;;;1.85;100.00
11198;BME280;5655;48.744;9.162;2023-01-30T08:48:59;96520.03;;;1.74;100.00
11198;BME280;5655;48.744;9.162;2023-01-30T08:51:25;96507.13;;;1.64;100.00
11198;BME280;5655;48.744;9.162;2023-01-30T08:53:50;96512.84;;;1.66;100.00
11198;BME280;5655;48.744;9.162;2023-01-30T08:56:16;96512.53;;;1.90;100.00
11198;BME280;5655;48.744;9.162;2023-01-30T08:58:41;96506.72;;;1.79;100.00
11198;BME280;5655;48.744;9.162;2023-01-30T09:01:08;96509.66;;;1.77;100.00
11198;BME280;5655;48.744;9.162;2023-01-30T09:03:34;96502.00;;;1.90;100.00
11198;BME280;5655;48.744;9.162;2023-01-30T09:05:59;96491.59;;;1.93;100.00
11198;BME280;5655;48.744;9.162;2023-01-30T09:08:25;96485.09;;;1.99;100.00
11198;BME280;5655;48.744;9.162;2023-01-30T09:10:50;96462.75;;;1.66;100.00
11198;BME280;5655;48.744;9.162;2023-01-30T09:13:16;96454.97;;;2.00;100.00
11198;BME280;5655;48.744;9.162;2023-01-30T09:15:42;96452.47;;;1.95;100.00
11198;BME280;5655;48.744;9.162;2023-01-30T09:18:07;96449.97;;;1.90;100.00
11198;BME280;5655;48.744;9.162;2023-01-30T09:20:33;96454.34;;;2.03;100.00
11198;BME280;5655;48.744;9.162;2023-01-30T09:22:58;96452.41;;;2.17;100.00
11198;BME280;5655;48.744;9.162;2023-01-30T09:25:24;96447.25;;;2.12;100.00
11198;BME280;5655;48.744;9.162;2023-01-30T09:27:50;96456.06;;;2.56;100.00
11198;BME280;5655;48.744;9.162;2023-01-30T09:30:15;96465.81;;;2.38;100.00
11198;BME280;5655;48.744;9.162;2023-01-30T09:32:41;96449.16;;;2.29;100.00
11198;BME280;5655;48.744;9.162;2023-01-30T09:35:07;96440.53;;;2.46;100.00
11198;BME280;5655;48.744;9.162;2023-01-30T09:37:32;96443.63;;;2.65;100.00
11198;BME280;5655;48.744;9.162;2023-01-30T09:39:58;96447.69;;;2.71;100.00
11198;BME280;5655;48.744;9.162;2023-01-30T09:48:30;96450.63;;;3.30;100.00
11198;BME280;5655;48.744;9.162;2023-01-30T09:51:19;96438.66;;;3.41;100.00
11198;BME280;5655;48.744;9.162;2023-01-30T09:56:22;96441.63;;;2.79;100.00
11198;BME280;5655;48.744;9.162;2023-01-30T09:58:56;96438.69;;;3.24;100.00
11198;BME280;5655;48.744;9.162;2023-01-30T10:01:29;96424.06;;;3.17;100.00
11198;BME280;5655;48.744;9.162;2023-01-30T10:04:05;96414.41;;;3.22;100.00
11198;BME280;5655;48.744;9.162;2023-01-30T10:06:42;96411.16;;;2.99;100.00
11198;BME280;5655;48.744;9.162;2023-01-30T10:09:37;96418.72;;;3.35;100.00
11198;BME280;5655;48.744;9.162;2023-01-30T10:12:34;96415.13;;;3.48;100.00
11198;BME280;5655;48.744;9.162;2023-01-30T10:15:37;96413.25;;;3.48;100.00
11198;BME280;5655;48.744;9.162;2023-01-30T10:20:51;96404.53;;;3.94;100.00
11198;BME280;5655;48.744;9.162;2023-01-30T10:26:13;96393.75;;;3.99;100.00
11198;BME280;5655;48.744;9.162;2023-01-30T10:28:47;96384.22;;;4.07;100.00
11198;BME280;5655;48.744;9.162;2023-01-30T10:31:18;96391.47;;;4.19;100.00
11198;BME280;5655;48.744;9.162;2023-01-30T10:34:04;96402.31;;;4.34;100.00
11198;BME280;5655;48.744;9.162;2023-01-30T10:36:48;96399.47;;;4.39;100.00
11198;BME280;5655;48.744;9.162;2023-01-30T10:42:07;96394.47;;;4.38;100.00
11198;BME280;5655;48.744;9.162;2023-01-30T10:44:33;96388.81;;;4.19;100.00
11198;BME280;5655;48.744;9.162;2023-01-30T10:55:13;96378.16;;;4.27;100.00
11198;BME280;5655;48.744;9.162;2023-01-30T11:00:28;96385.81;;;4.29;100.00
11198;BME280;5655;48.744;9.162;2023-01-30T11:03:18;96394.19;;;4.60;100.00
11198;BME280;5655;48.744;9.162;2023-01-30T11:08:25;96390.06;;;4.21;100.00
11198;BME280;5655;48.744;9.162;2023-01-30T11:10:51;96379.44;;;4.00;100.00
11198;BME280;5655;48.744;9.162;2023-01-30T11:13:20;96379.28;;;4.26;100.00
11198;BME280;5655;48.744;9.162;2023-01-30T11:15:49;96380.56;;;4.41;100.00
11198;BME280;5655;48.744;9.162;2023-01-30T11:18:16;96392.09;;;4.45;100.00
11198;BME280;5655;48.744;9.162;2023-01-30T11:20:45;96391.38;;;4.36;100.00
11198;BME280;5655;48.744;9.162;2023-01-30T11:25:56;96387.25;;;3.97;100.00
11198;BME280;5655;48.744;9.162;2023-01-30T11:28:24;96400.44;;;4.05;100.00
11198;BME280;5655;48.744;9.162;2023-01-30T11:30:59;96376.22;;;4.16;100.00
11198;BME280;5655;48.744;9.162;2023-01-30T11:33:35;96380.78;;;4.06;100.00
11198;BME280;5655;48.744;9.162;2023-01-30T11:36:03;96376.97;;;3.95;100.00
11198;BME280;5655;48.744;9.162;2023-01-30T11:38:31;96375.88;;;3.96;100.00
11198;BME280;5655;48.744;9.162;2023-01-30T11:43:29;96373.66;;;3.69;100.00
11198;BME280;5655;48.744;9.162;2023-01-30T11:45:56;96383.06;;;3.87;100.00
11198;BME280;5655;48.744;9.162;2023-01-30T11:48:26;96377.31;;;3.85;100.00
11198;BME280;5655;48.744;9.162;2023-01-30T11:51:01;96387.16;;;3.76;100.00
11198;BME280;5655;48.744;9.162;2023-01-30T11:53:29;96370.00;;;3.44;100.00
11198;BME280;5655;48.744;9.162;2023-01-30T11:55:59;96374.78;;;3.59;100.00
11198;BME280;5655;48.744;9.162;2023-01-30T11:58:32;96362.31;;;3.60;100.00
11198;BME280;5655;48.744;9.162;2023-01-30T12:00:59;96361.78;;;3.29;100.00
11198;BME280;5655;48.744;9.162;2023-01-30T12:03:25;96349.22;;;3.17;100.00
11198;BME280;5655;48.744;9.162;2023-01-30T12:05:54;96351.84;;;3.26;100.00
11198;BME280;5655;48.744;9.162;2023-01-30T12:08:25;96336.34;;;3.07;100.00
11198;BME280;5655;48.744;9.162;2023-01-30T12:11:00;96343.22;;;3.46;100.00
11198;BME280;5655;48.744;9.162;2023-01-30T12:13:40;96343.69;;;3.48;100.00
11198;BME280;5655;48.744;9.162;2023-01-30T12:16:22;96345.19;;;3.66;100.00
11198;BME280;5655;48.744;9.162;2023-01-30T12:19:14;96341.41;;;3.67;100.00
11198;BME280;5655;48.744;9.162;2023-01-30T12:21:48;96347.75;;;3.37;100.00
11198;BME280;5655;48.744;9.162;2023-01-30T12:24:35;96343.34;;;3.58;100.00
11198;BME280;5655;48.744;9.162;2023-01-30T12:27:15;96347.47;;;3.30;100.00
11198;BME280;5655;48.744;9.162;2023-01-30T12:29:56;96328.75;;;3.52;100.00
11198;BME280;5655;48.744;9.162;2023-01-30T12:32:27;96342.34;;;3.33;100.00
11198;BME280;5655;48.744;9.162;2023-01-30T12:34:52;96338.56;;;2.96;100.00
11198;BME280;5655;48.744;9.162;2023-01-30T12:40:02;96339.28;;;3.14;100.00
11198;BME280;5655;48.744;9.162;2023-01-30T12:43:15;96349.13;;;3.51;100.00
11198;BME280;5655;48.744;9.162;2023-01-30T12:45:58;96347.94;;;3.40;100.00
11198;BME280;5655;48.744;9.162;2023-01-30T12:51:34;96356.16;;;3.39;100.00
11198;BME280;5655;48.744;9.162;2023-01-30T13:10:20;96386.41;;;3.20;100.00
11198;BME280;5655;48.744;9.162;2023-01-30T13:13:13;96373.66;;;3.23;100.00
11198;BME280;5655;48.744;9.162;2023-01-30T13:18:31;96381.41;;;3.28;100.00
11198;BME280;5655;48.744;9.162;2023-01-30T13:26:28;96374.91;;;3.16;100.00
11198;BME280;5655;48.744;9.162;2023-01-30T13:28:59;96381.22;;;3.33;100.00
11198;BME280;5655;48.744;9.162;2023-01-30T13:31:30;96394.31;;;3.20;100.00
11198;BME280;5655;48.744;9.162;2023-01-30T13:34:13;96375.00;;;3.37;100.00
11198;BME280;5655;48.744;9.162;2023-01-30T13:36:50;96388.06;;;3.42;100.00
11198;BME280;5655;48.744;9.162;2023-01-30T13:42:03;96396.50;;;3.27;100.00
11198;BME280;5655;48.744;9.162;2023-01-30T13:44:31;96395.56;;;3.32;100.00
11198;BME280;5655;48.744;9.162;2023-01-30T13:49:51;96414.13;;;3.70;100.00
11198;BME280;5655;48.744;9.162;2023-01-30T13:52:40;96421.41;;;3.81;100.00
11198;BME280;5655;48.744;9.162;2023-01-30T14:00:55;96437.81;;;3.66;100.00
11198;BME280;5655;48.744;9.162;2023-01-30T14:03:32;96443.63;;;3.89;100.00
11198;BME280;5655;48.744;9.162;2023-01-30T14:08:50;96463.00;;;3.72;100.00
11198;BME280;5655;48.744;9.162;2023-01-30T14:11:36;96457.19;;;3.96;100.00
11198;BME280;5655;48.744;9.162;2023-01-30T14:14:05;96446.56;;;4.04;100.00
11198;BME280;5655;48.744;9.162;2023-01-30T14:16:46;96452.38;;;4.19;100.00
11198;BME280;5655;48.744;9.162;2023-01-30T14:19:38;96452.34;;;4.27;100.00
11198;BME280;5655;48.744;9.162;2023-01-30T14:22:19;96458.06;;;4.08;100.00
11198;BME280;5655;48.744;9.162;2023-01-30T14:27:49;96463.59;;;4.24;100.00
11198;BME280;5655;48.744;9.162;2023-01-30T14:38:26;96476.69;;;4.21;100.00
11198;BME280;5655;48.744;9.162;2023-01-30T14:46:04;96486.66;;;4.24;100.00
11198;BME280;5655;48.744;9.162;2023-01-30T14:51:20;96489.72;;;4.34;100.00
11198;BME280;5655;48.744;9.162;2023-01-30T14:56:49;96507.78;;;4.41;100.00
11198;BME280;5655;48.744;9.162;2023-01-30T15:04:56;96492.19;;;4.01;100.00
11198;BME280;5655;48.744;9.162;2023-01-30T15:07:29;96496.34;;;4.20;100.00
11198;BME280;5655;48.744;9.162;2023-01-30T15:10:04;96510.22;;;4.17;100.00
11198;BME280;5655;48.744;9.162;2023-01-30T15:17:56;96527.53;;;4.52;100.00
11198;BME280;5655;48.744;9.162;2023-01-30T15:21:14;96545.78;;;4.45;100.00
11198;BME280;5655;48.744;9.162;2023-01-30T15:26:05;96545.34;;;3.96;100.00
11198;BME280;5655;48.744;9.162;2023-01-30T15:28:51;96534.00;;;4.34;100.00
11198;BME280;5655;48.744;9.162;2023-01-30T15:31:23;96539.00;;;4.27;100.00
11198;BME280;5655;48.744;9.162;2023-01-30T15:33:51;96539.31;;;4.25;100.00
11198;BME280;5655;48.744;9.162;2023-01-30T15:36:19;96527.97;;;4.16;100.00
11198;BME280;5655;48.744;9.162;2023-01-30T15:38:44;96532.22;;;4.08;100.00